createdAt,value
2022-07-27T00:02:16.796Z,58
2022-07-27T00:07:57.001Z,54
2022-07-27T00:13:37.347Z,52
2022-07-27T00:19:17.838Z,44
2022-07-27T00:25:16.858Z,46
2022-07-27T00:30:57.867Z,58
2022-07-27T00:36:38.354Z,56
2022-07-27T00:42:18.491Z,50
2022-07-27T00:47:58.892Z,46
2022-07-27T00:53:39.287Z,56
2022-07-27T00:59:19.611Z,50
2022-07-27T01:05:01.166Z,56
2022-07-27T01:10:44.173Z,50
2022-07-27T01:16:25.043Z,56
2022-07-27T01:22:05.689Z,50
2022-07-27T01:27:45.622Z,56
2022-07-27T01:33:26.482Z,54
2022-07-27T01:39:06.618Z,46
2022-07-27T01:44:46.624Z,54
2022-07-27T01:50:26.860Z,58
2022-07-27T01:56:07.164Z,44
2022-07-27T02:01:47.785Z,54
2022-07-27T02:07:28.542Z,48
2022-07-27T02:13:23.565Z,52
2022-07-27T02:19:05.687Z,56
2022-07-27T02:24:51.426Z,46
2022-07-27T02:30:31.568Z,56
2022-07-27T02:36:11.891Z,48
2022-07-27T02:41:52.579Z,46
2022-07-27T02:47:32.806Z,56
2022-07-27T02:53:12.844Z,44
2022-07-27T02:58:53.036Z,48
2022-07-27T03:04:34.029Z,54
2022-07-27T03:10:14.703Z,54
2022-07-27T03:15:55.677Z,58
2022-07-27T03:27:16.774Z,44
2022-07-27T03:32:57.281Z,48
2022-07-27T03:38:37.687Z,48
2022-07-27T03:44:17.887Z,50
2022-07-27T03:49:58.372Z,46
2022-07-27T04:05:41.172Z,56
2022-07-27T04:11:29.875Z,40
2022-07-27T04:17:11.062Z,40
2022-07-27T04:23:38.965Z,56
2022-07-27T04:29:22.907Z,50
2022-07-27T04:35:04.630Z,46
2022-07-27T04:40:45.169Z,42
2022-07-27T04:46:27.000Z,50
2022-07-27T04:52:08.585Z,50
2022-07-27T04:57:48.848Z,48
2022-07-27T05:03:28.830Z,46
2022-07-27T05:09:10.749Z,56
2022-07-27T05:14:52.513Z,44
2022-07-27T05:20:36.883Z,48
2022-07-27T05:26:17.382Z,48
2022-07-27T05:31:57.872Z,46
2022-07-27T05:37:38.429Z,54
2022-07-27T05:43:27.104Z,58
2022-07-27T05:49:15.411Z,46
2022-07-27T05:54:57.192Z,44
2022-07-27T06:00:38.101Z,40
2022-07-27T06:06:19.767Z,56
2022-07-27T06:12:00.904Z,58
2022-07-27T06:17:42.134Z,56
2022-07-27T06:23:25.989Z,56
2022-07-27T06:29:12.567Z,58
2022-07-27T06:34:55.040Z,48
2022-07-27T06:40:35.468Z,54
2022-07-27T06:46:16.094Z,58
2022-07-27T06:51:57.132Z,58
2022-07-27T06:57:40.224Z,50
2022-07-27T07:03:21.235Z,48
2022-07-27T07:09:01.926Z,8
2022-07-27T07:14:42.701Z,52
2022-07-27T07:20:21.994Z,50
2022-07-27T07:26:01.340Z,48
2022-07-27T07:37:22.928Z,46
2022-07-27T07:43:14.610Z,62
2022-07-27T07:48:56.456Z,12
2022-07-27T07:54:37.971Z,0
2022-07-27T08:00:19.295Z,60
2022-07-27T08:05:59.107Z,14
2022-07-27T08:11:43.401Z,56
2022-07-27T08:17:22.744Z,60
2022-07-27T08:23:04.127Z,12
2022-07-27T08:28:50.991Z,10
2022-07-27T08:34:30.701Z,10
2022-07-27T08:40:47.107Z,8
2022-07-27T08:46:31.202Z,54
2022-07-27T08:52:11.576Z,12
2022-07-27T08:57:51.490Z,12
2022-07-27T09:03:32.371Z,4
2022-07-27T09:09:15.258Z,8
2022-07-27T09:15:00.739Z,10
2022-07-27T09:20:40.579Z,48
2022-07-27T09:26:35.375Z,56
2022-07-27T09:32:18.099Z,52
2022-07-27T09:38:24.355Z,52
2022-07-27T09:44:44.742Z,8
2022-07-27T09:50:48.809Z,6
2022-07-27T09:57:42.240Z,10
2022-07-27T10:03:29.713Z,2
2022-07-27T10:11:47.877Z,12
2022-07-27T10:17:28.252Z,18
2022-07-27T10:23:18.905Z,0
2022-07-27T10:29:17.543Z,0
2022-07-27T10:35:17.067Z,0
2022-07-27T10:40:57.780Z,0
2022-07-27T10:46:38.495Z,0
2022-07-27T10:52:39.958Z,0
2022-07-27T10:58:20.578Z,2
2022-07-27T11:04:09.802Z,0
2022-07-27T11:10:28.382Z,0
2022-07-27T11:16:55.795Z,0
2022-07-27T11:23:55.293Z,0
2022-07-27T11:29:57.762Z,0
2022-07-27T11:36:21.893Z,0
2022-07-27T11:42:23.701Z,34
2022-07-27T11:48:04.548Z,28
2022-07-27T11:53:44.856Z,2
2022-07-27T11:59:25.664Z,6
2022-07-27T12:05:06.310Z,0
2022-07-27T12:10:48.317Z,12
2022-07-27T12:16:42.190Z,54
2022-07-27T12:22:26.960Z,48
2022-07-27T12:28:09.926Z,0
2022-07-27T12:34:11.955Z,2
2022-07-27T12:40:15.998Z,54
2022-07-27T12:46:06.747Z,46
2022-07-27T12:52:06.215Z,40
2022-07-27T12:58:03.048Z,14
2022-07-27T13:10:04.294Z,0
2022-07-27T13:15:47.677Z,0
2022-07-27T13:21:28.361Z,12
2022-07-27T13:27:55.189Z,18
2022-07-27T13:33:38.333Z,4
2022-07-27T13:39:34.887Z,0
2022-07-27T13:45:44.280Z,0
2022-07-27T13:51:25.333Z,0
2022-07-27T13:57:06.038Z,56
2022-07-27T14:02:46.480Z,64
2022-07-27T14:14:10.332Z,62
2022-07-27T14:19:50.949Z,16
2022-07-27T14:25:31.171Z,16
2022-07-27T14:31:31.544Z,10
2022-07-27T14:37:16.028Z,6
2022-07-27T14:43:04.374Z,20
2022-07-27T14:49:07.710Z,4
2022-07-27T15:06:09.177Z,0
2022-07-27T15:17:42.913Z,0
2022-07-27T15:23:24.452Z,46
2022-07-27T15:29:04.402Z,62
2022-07-27T15:34:52.277Z,100
2022-07-27T15:46:34.811Z,56
2022-07-27T15:52:15.206Z,60
2022-07-27T15:57:55.772Z,54
2022-07-27T16:03:37.045Z,58
2022-07-27T16:09:18.413Z,56
2022-07-27T16:14:58.686Z,60
2022-07-27T16:20:38.868Z,48
2022-07-27T16:26:18.853Z,50
2022-07-27T16:31:58.982Z,58
2022-07-27T16:37:39.198Z,52
2022-07-27T16:43:19.572Z,56
2022-07-27T16:49:00.395Z,46
2022-07-27T16:54:43.597Z,52
2022-07-27T17:00:23.818Z,54
2022-07-27T17:06:10.149Z,52
2022-07-27T17:16:52.879Z,100
2022-07-27T17:22:33.152Z,54
2022-07-27T17:28:13.193Z,54
2022-07-27T17:33:53.398Z,54
2022-07-27T17:45:13.866Z,48
2022-07-27T17:50:54.309Z,58
2022-07-27T17:56:34.829Z,62
2022-07-27T18:02:15.482Z,56
2022-07-27T18:07:56.153Z,56
2022-07-27T18:13:40.280Z,56
2022-07-27T18:19:20.513Z,58
2022-07-27T18:25:01.115Z,56
2022-07-27T18:30:44.314Z,58
2022-07-27T18:36:24.969Z,54
2022-07-27T18:42:05.274Z,58
2022-07-27T18:47:53.203Z,54
2022-07-27T18:53:33.976Z,52
2022-07-27T18:59:16.304Z,60
2022-07-27T19:04:57.215Z,48
2022-07-27T19:10:37.500Z,52
2022-07-27T19:16:17.698Z,46
2022-07-27T19:21:57.952Z,56
2022-07-27T19:33:22.102Z,52
2022-07-27T19:39:09.519Z,48
2022-07-27T19:44:50.963Z,46
2022-07-27T19:50:31.034Z,46
2022-07-27T19:56:11.466Z,54
2022-07-27T20:01:52.093Z,56
2022-07-27T20:07:32.934Z,46
2022-07-27T20:13:12.931Z,58
2022-07-27T20:18:53.046Z,56
2022-07-27T20:24:33.114Z,46
2022-07-27T20:30:13.270Z,40
2022-07-27T20:35:53.519Z,54
2022-07-27T20:41:34.116Z,44
2022-07-27T20:47:14.379Z,46
2022-07-27T20:52:54.712Z,56
2022-07-27T20:58:34.951Z,58
2022-07-27T21:04:15.632Z,54
2022-07-27T21:10:10.205Z,42
2022-07-27T21:15:50.661Z,56
2022-07-27T21:21:31.035Z,58
2022-07-27T21:27:12.279Z,54
2022-07-27T21:32:53.957Z,54
2022-07-27T21:38:34.892Z,56
2022-07-27T21:44:17.868Z,54
2022-07-27T21:49:58.783Z,56
2022-07-27T21:55:38.904Z,44
2022-07-27T22:01:19.999Z,60
2022-07-27T22:07:00.332Z,54
2022-07-27T22:12:40.504Z,50
2022-07-27T22:18:20.874Z,46
2022-07-27T22:24:01.307Z,40
2022-07-27T22:29:41.442Z,54
2022-07-27T22:35:21.729Z,54
2022-07-27T22:41:02.072Z,44
2022-07-27T22:46:42.322Z,54
2022-07-27T22:52:22.544Z,58
2022-07-27T22:58:02.714Z,46
2022-07-27T23:09:23.638Z,56
2022-07-27T23:15:03.875Z,52
2022-07-27T23:20:44.214Z,56
2022-07-27T23:26:27.277Z,44
2022-07-27T23:32:09.542Z,48
2022-07-27T23:37:49.568Z,40
2022-07-27T23:43:31.849Z,52
2022-07-27T23:49:12.872Z,48
2022-07-27T23:54:53.603Z,46
